Flight Track Log - Related Links

Times and Time Zones

All times are in EDT time to prevent confusion due to time zone crossing. See the N210PM flight status page for this flight to view local times or setup timezone preferences in your user account.

Time Position Orientation Groundspeed Altitude Reporting Facility
EDT Latitude Longitude Course Direction KTS MPH feet Rate Location/Type
Fri 07:45:46 PM 40.8256 -96.7444 152° Southeast 145 167 1,800  Level Minneapolis Center
Fri 07:46:29 PM 40.8014 -96.7278 152° Southeast 160 184 3,100 1,733 Climbing Minneapolis Center
Fri 07:47:16 PM 40.8181 -96.6864 62° Northeast 190 219 4,400 1,706 Climbing Minneapolis Center
Fri 07:48:18 PM 40.8356 -96.6136 72° East 206 237 6,200 1,742 Climbing Minneapolis Center
Fri 07:49:20 PM 40.8547 -96.5344 72° East 220 253 8,000 1,976 Climbing Minneapolis Center
Fri 07:49:43 PM 40.8581 -96.4850 85° East 234 269 9,000 1,839 Climbing Minneapolis Center
Fri 07:50:22 PM 40.8750 -96.4531 55° Northeast 229 264 9,900 2,000 Climbing Minneapolis Center
Fri 07:50:43 PM 40.8803 -96.4056 82° East 232 267 11,000 2,129 Climbing Minneapolis Center
Fri 07:51:24 PM 40.9000 -96.3567 62° Northeast 231 266 12,100 1,612 Climbing Minneapolis Center
Fri 07:51:50 PM 40.9039 -96.3175 83° East 231 266 12,800 1,548 Climbing Minneapolis Center
Fri 07:52:26 PM 40.9194 -96.2756 64° Northeast 232 267 13,700 1,574 Climbing Minneapolis Center
Fri 07:52:51 PM 40.9258 -96.2325 79° East 236 272 14,400 1,258 Climbing Minneapolis Center
Fri 07:53:28 PM 40.9403 -96.1928 64° Northeast 236 272 15,000 600 Climbing Minneapolis Center
Fri 07:53:51 PM 40.9475 -96.1444 79° East 270 311 15,000  Level Minneapolis Center
Fri 07:54:30 PM 40.9647 -96.0933 66° East 275 316 15,000  Level Minneapolis Center
Fri 07:54:46 PM 40.9728 -96.0506 76° East 311 358 15,000  Level Minneapolis Center
Fri 07:55:32 PM 40.9925 -95.9831 69° East 309 356 15,000  Level Minneapolis Center
Fri 07:56:34 PM 41.0258 -95.8450 72° East 327 376 15,000  Level Minneapolis Center
Fri 07:57:47 PM 41.0625 -95.7003 71° East 334 384 15,000  Level Minneapolis Center
Fri 07:58:38 PM 41.0817 -95.6139 74° East 333 383 15,000  Level Minneapolis Center
Fri 07:59:40 PM 41.1103 -95.4972 72° East 335 386 15,000  Level Minneapolis Center
Fri 08:00:42 PM 41.1381 -95.3811 72° East 333 383 15,000 -97 Level Minneapolis Center
Fri 08:01:44 PM 41.1667 -95.2639 72° East 335 386 14,800 -98 Descending Minneapolis Center
Fri 08:02:45 PM 41.1997 -95.1258 72° East 331 381 14,800  Level Minneapolis Center
Fri 08:03:47 PM 41.2250 -95.0114 74° East 327 376 14,800  Level Minneapolis Center
Fri 08:04:49 PM 41.2531 -94.8944 72° East 330 380 14,800  Level Minneapolis Center
Fri 08:05:51 PM 41.2794 -94.7775 73° East 331 381 14,800  Level Minneapolis Center
Fri 08:06:18 PM 41.3006 -94.7025 69° East 334 384 14,800 -677 Level Minneapolis Center
Fri 08:06:53 PM 41.3083 -94.6594 76° East 335 386 14,100 -1,279 Descending Minneapolis Center
Fri 08:07:19 PM 41.3289 -94.5869 69° East 330 380 13,500 -1,452 Descending Minneapolis Center
Fri 08:07:55 PM 41.3303 -94.5428 88° East 330 380 12,600 -2,000 Descending Minneapolis Center
Fri 08:08:19 PM 41.3425 -94.4694 77° East 323 372 11,500 -2,129 Descending Minneapolis Center
Fri 08:08:57 PM 41.3456 -94.4072 86° East 315 362 10,400 -1,574 Descending Minneapolis Center
Fri 08:09:20 PM 41.3544 -94.3631 75° East 293 337 9,900 -1,548 Descending Minneapolis Center
Fri 08:09:59 PM 41.3575 -94.3014 86° East 280 322 8,800 -1,700 Descending Minneapolis Center
Fri 08:10:20 PM 41.3686 -94.2650 68° East 275 316 8,200 -1,548 Descending Minneapolis Center
Fri 08:11:01 PM 41.3697 -94.2050 89° East 267 307 7,200 -1,574 Descending Minneapolis Center
Fri 08:11:21 PM 41.3783 -94.1669 73° East 267 307 6,600 -1,548 Descending Minneapolis Center
Fri 08:12:03 PM 41.3872 -94.1111 78° East 263 303 5,600 -1,574 Descending Minneapolis Center
Fri 08:12:22 PM 41.4031 -94.0706 62° Northeast 256 295 5,000 -1,742 Descending Minneapolis Center
Fri 08:13:05 PM 41.4147 -94.0214 72° East 243 280 3,800 -1,700 Descending Minneapolis Center
Fri 08:13:22 PM 41.4281 -93.9881 62° Northeast 238 274 3,300 -787 Descending Minneapolis Center
Fri 08:14:06 PM 41.4347 -93.9439 79° East 224 258 3,000 -295 Descending Minneapolis Center
Fri 08:14:23 PM 41.4456 -93.9169 62° Northeast 210 242 3,000  Level Minneapolis Center
Fri 08:15:08 PM 41.4506 -93.8756 81° East 182 209 3,000  Level Minneapolis Center
Fri 08:15:24 PM 41.4592 -93.8547 61° Northeast 180 207 3,000  Level Minneapolis Center
Fri 08:16:10 PM 41.4639 -93.8161 81° East 171 197 3,000 -198 Level Minneapolis Center
Fri 08:17:25 PM 41.4833 -93.7581 66° East 117 135 2,600 -484 Descending Minneapolis Center
Fri 08:18:14 PM 41.4925 -93.7358 61° Northeast 111 128 2,000 -595 Descending Minneapolis Center
Fri 08:19:16 PM 41.5089 -93.7044 55° Northeast 106 122 1,500 -484 Descending Minneapolis Center
Fri 08:20:18 PM 41.5267 -93.6711 55° Northeast 109 125 1,000 -484 Descending Minneapolis Center
Fri 08:22:00 PM 41.5340 -93.6631 66° East  Level Estimated

Login

Don't have an account? Register now (free) for customized features, flight alerts, and more!